Time;durP1;ratioP1;P1;durP2;ratioP2;P2;SDS_P1;SDS_P2;PMS_P1;PMS_P2;Temp;Humidity;BMP_temperature;BMP_pressure;BME280_temperature;BME280_humidity;BME280_pressure;Samples;Min_cycle;Max_cycle;Signal;HPM_P1;HPM_P2
2022/01/27 00:11:14;;;;;;;33.88;18.08;;;;;;;1.79;81.42;101808.72;4862294;29;20130;-95
2022/01/27 00:13:58;;;;;;;;;;;;;;;;;;;;;
2022/01/27 00:16:34;;;;;;;34.75;17.70;;;;;;;1.53;82.23;101780.56;4884475;29;20088;-93
2022/01/27 00:19:12;;;;;;;36.95;17.40;;;;;;;1.24;81.42;101725.41;4871392;29;20143;-95
2022/01/27 00:21:43;;;;;;;37.78;17.90;;;;;;;1.31;81.95;101753.31;4867175;29;20081;-93
2022/01/27 00:24:32;;;;;;;35.63;17.60;;;;;;;1.14;82.40;101717.44;4878787;29;20061;-94
2022/01/27 00:27:19;;;;;;;39.38;18.20;;;;;;;1.42;82.72;101759.53;4878593;29;20083;-94
2022/01/27 00:30:10;;;;;;;38.13;18.75;;;;;;;1.53;82.21;101761.41;4884048;29;20053;-94
2022/01/27 00:32:46;;;;;;;34.55;18.35;;;;;;;1.61;82.29;101767.59;4879452;29;20662;-93
2022/01/27 00:35:46;;;;;;;35.58;18.02;;;;;;;1.60;82.13;101761.50;4862963;29;20136;-95
2022/01/27 00:38:46;;;;;;;36.30;17.50;;;;;;;1.54;82.19;101756.22;4877074;29;20045;-96
2022/01/27 00:41:58;;;;;;;32.42;17.67;;;;;;;1.23;81.72;101702.78;4877047;29;20050;-93
2022/01/27 00:45:18;;;;;;;36.75;17.83;;;;;;;1.56;81.89;101762.34;4866116;29;20052;-94
2022/01/27 00:48:16;;;;;;;;;;;;;;;;;;;;;
2022/01/27 00:51:06;;;;;;;34.88;17.85;;;;;;;1.35;82.68;101715.97;4875448;29;20089;-92
2022/01/27 00:54:07;;;;;;;33.03;17.05;;;;;;;1.20;82.02;101702.75;4873753;29;20072;-95
2022/01/27 00:56:58;;;;;;;37.95;18.52;;;;;;;1.50;82.70;101749.22;4871475;29;20061;-94
2022/01/27 00:59:42;;;;;;;43.03;19.75;;;;;;;1.39;82.68;101743.88;4877100;29;20140;-94
2022/01/27 01:11:59;;;;;;;33.72;17.05;;;;;;;1.34;81.76;101729.88;4883148;29;20160;-94
2022/01/27 01:29:52;;;;;;;37.28;18.25;;;;;;;1.19;82.69;101715.78;4880897;29;20045;-93
2022/01/27 01:32:47;;;;;;;35.40;18.40;;;;;;;1.33;82.88;101738.56;4887862;29;20117;-93
2022/01/27 01:35:36;;;;;;;37.45;18.35;;;;;;;1.37;82.97;101742.09;4888096;29;20065;-90
2022/01/27 01:38:07;;;;;;;37.30;18.75;;;;;;;1.44;83.38;101756.06;4882011;29;20061;-92
2022/01/27 01:40:43;;;;;;;34.28;17.65;;;;;;;1.08;83.77;101704.34;4877605;29;20049;-92
2022/01/27 01:43:21;;;;;;;40.78;20.33;;;;;;;1.09;83.01;101703.47;4862219;29;20064;-94
2022/01/27 01:45:49;;;;;;;39.33;18.42;;;;;;;1.02;84.00;101695.56;4875562;29;20144;-94
2022/01/27 01:48:24;;;;;;;39.92;19.20;;;;;;;1.20;83.83;101723.63;4877555;29;20055;-94
2022/01/27 01:50:55;;;;;;;34.58;17.98;;;;;;;1.24;83.70;101719.31;4879855;29;20048;-93
2022/01/27 01:53:55;;;;;;;40.50;18.77;;;;;;;1.47;83.46;101741.34;4877967;29;20045;-94
2022/01/27 01:56:32;;;;;;;35.38;19.00;;;;;;;1.43;83.35;101716.03;4880676;29;20045;-94
2022/01/27 01:58:59;;;;;;;36.30;18.95;;;;;;;1.44;82.34;101717.81;4888513;29;20052;-94
2022/01/27 02:01:38;;;;;;;37.50;19.10;;;;;;;1.26;82.65;101670.66;4886932;29;20071;-94
2022/01/27 02:04:21;;;;;;;41.58;19.55;;;;;;;1.18;83.13;101659.22;4869611;29;20061;-95
2022/01/27 02:07:03;;;;;;;39.63;19.48;;;;;;;1.48;83.33;101703.94;4864934;29;20049;-94
2022/01/27 02:18:20;;;;;;;41.22;18.25;;;;;;;1.49;83.44;101708.28;4869661;29;20069;-94
2022/01/27 02:20:58;;;;;;;36.45;19.33;;;;;;;1.47;83.08;101698.69;4866622;29;20076;-95
2022/01/27 02:23:44;;;;;;;38.22;19.52;;;;;;;1.37;83.36;101682.06;4867892;29;20045;-94
2022/01/27 02:26:14;;;;;;;40.15;19.58;;;;;;;1.32;83.41;101660.25;4882083;29;20038;-93
2022/01/27 02:28:41;;;;;;;37.58;19.17;;;;;;;1.16;83.08;101617.47;4867685;29;20169;-95
2022/01/27 02:31:12;;;;;;;41.28;20.33;;;;;;;1.19;83.09;101621.84;4867911;29;20136;-94
2022/01/27 02:33:44;;;;;;;42.25;19.42;;;;;;;1.16;83.00;101621.81;4865770;29;20107;-93
2022/01/27 02:36:26;;;;;;;39.47;18.67;;;;;;;1.33;83.39;101646.34;4860673;29;20057;-93
2022/01/27 02:38:59;;;;;;;36.88;18.60;;;;;;;1.13;83.44;101622.63;4863792;29;20750;-94
2022/01/27 02:41:50;;;;;;;37.97;19.40;;;;;;;1.45;83.89;101675.19;4869352;29;20471;-93
2022/01/27 02:47:45;;;;;;;40.65;18.88;;;;;;;1.33;84.05;101647.22;4863114;29;20057;-92
2022/01/27 02:50:18;;;;;;;41.10;20.40;;;;;;;1.23;83.59;101654.94;4867409;29;20050;-94
2022/01/27 02:52:54;;;;;;;41.30;21.33;;;;;;;1.23;84.13;101655.81;4870315;29;20109;-93
2022/01/27 02:55:24;;;;;;;42.88;21.38;;;;;;;1.13;83.60;101617.44;4862892;29;20133;-94
2022/01/27 02:57:57;;;;;;;45.72;20.80;;;;;;;1.15;83.84;101609.63;4866236;29;20057;-94
2022/01/27 03:00:27;;;;;;;42.35;20.95;;;;;;;1.10;84.04;101603.50;4870930;29;20050;-94
2022/01/27 03:03:03;;;;;;;46.55;21.63;;;;;;;1.24;84.74;101635.81;4876973;29;20037;-95
2022/01/27 03:05:30;;;;;;;40.63;20.42;;;;;;;1.26;84.99;101640.16;4892346;29;20072;-93
2022/01/27 03:08:00;;;;;;;42.33;20.70;;;;;;;1.42;83.73;101651.66;4885620;29;20056;-94
2022/01/27 03:10:32;;;;;;;41.90;21.17;;;;;;;1.36;83.73;101633.34;4887644;29;20138;-94
2022/01/27 03:13:00;;;;;;;43.78;21.17;;;;;;;1.42;84.32;101637.75;4881365;29;20059;-94
2022/01/27 03:15:33;;;;;;;42.67;20.40;;;;;;;1.51;83.82;101656.97;4879461;29;20045;-94
2022/01/27 03:18:11;;;;;;;37.75;19.40;;;;;;;1.12;84.08;101584.38;4882020;29;20067;-93
2022/01/27 03:20:39;;;;;;;46.10;22.27;;;;;;;1.10;84.30;101574.81;4882500;29;20057;-94
2022/01/27 03:23:10;;;;;;;47.72;21.30;;;;;;;1.42;84.48;101640.38;4875675;29;20138;-93
2022/01/27 03:25:39;;;;;;;43.67;21.33;;;;;;;1.16;84.73;101612.25;4882064;29;20059;-94
2022/01/27 03:28:10;;;;;;;47.47;21.80;;;;;;;1.34;84.74;101654.19;4877353;29;20061;-93
2022/01/27 03:30:38;;;;;;;43.22;21.30;;;;;;;1.03;85.03;101594.72;4882636;29;20049;-95
2022/01/27 03:33:08;;;;;;;46.50;21.80;;;;;;;1.16;85.26;101608.75;4876350;29;20172;-93
2022/01/27 03:35:39;;;;;;;46.50;22.05;;;;;;;1.09;84.56;101592.19;4885777;29;20523;-92
2022/01/27 03:38:09;;;;;;;46.33;21.75;;;;;;;1.06;85.11;101579.09;4881431;29;20049;-94
2022/01/27 03:40:39;;;;;;;46.42;21.08;;;;;;;1.25;85.05;101596.72;4882188;29;20059;-93
2022/01/27 03:43:12;;;;;;;46.47;22.38;;;;;;;1.05;84.98;101562.56;4881219;29;20096;-96
2022/01/27 03:45:44;;;;;;;46.00;21.38;;;;;;;1.07;85.13;101566.94;4882846;29;20235;-95
2022/01/27 03:48:16;;;;;;;46.78;22.23;;;;;;;0.95;85.48;101555.50;4879616;29;20053;-94
2022/01/27 03:50:46;;;;;;;46.38;21.42;;;;;;;0.96;85.35;101562.47;4893177;29;20049;-96
2022/01/27 03:53:19;;;;;;;46.90;22.17;;;;;;;0.93;85.73;101562.47;4897360;29;20112;-95
2022/01/27 03:55:48;;;;;;;45.53;22.85;;;;;;;1.39;84.84;101635.97;4898795;29;20041;-95
2022/01/27 03:58:17;;;;;;;50.90;23.05;;;;;;;1.08;85.49;101592.16;4887648;29;20053;-93
2022/01/27 04:01:04;;;;;;;;;;;;;;;;;;;;;
2022/01/27 04:03:36;;;;;;;43.40;22.15;;;;;;;1.07;85.30;101596.50;4884973;29;20076;-93
2022/01/27 04:06:08;;;;;;;47.53;20.63;;;;;;;1.20;85.50;101608.81;4883643;29;20057;-93
2022/01/27 04:08:52;;;;;;;44.83;21.13;;;;;;;1.19;84.71;101599.25;4885132;29;20049;-94
2022/01/27 04:11:22;;;;;;;49.03;22.98;;;;;;;1.26;84.96;101619.28;4887104;29;20049;-93
2022/01/27 04:13:53;;;;;;;48.33;22.33;;;;;;;1.04;84.76;101592.13;4868557;29;20032;-94
2022/01/27 04:16:50;;;;;;;;;;;;;;;;;;;;;
2022/01/27 04:19:28;;;;;;;48.33;23.05;;;;;;;1.30;84.85;101636.75;4882080;29;20049;-94
2022/01/27 04:22:08;;;;;;;43.13;20.33;;;;;;;1.33;84.63;101618.53;4881662;29;20120;-93
2022/01/27 04:24:37;;;;;;;40.65;20.60;;;;;;;1.11;83.72;101573.91;4888273;29;20083;-95
2022/01/27 04:27:16;;;;;;;46.80;21.83;;;;;;;1.42;84.02;101630.78;4896607;29;20171;-94
2022/01/27 04:30:04;;;;;;;43.90;21.52;;;;;;;1.37;83.92;101615.09;4888459;29;20144;-95
2022/01/27 04:32:44;;;;;;;46.17;22.38;;;;;;;1.26;84.46;101595.81;4880987;29;20049;-92
2022/01/27 04:35:19;;;;;;;46.53;22.52;;;;;;;1.06;84.37;101560.84;4880372;29;20057;-94
2022/01/27 04:38:18;;;;;;;46.08;21.25;;;;;;;1.25;84.42;101577.56;4880268;29;20056;-94
2022/01/27 04:44:02;;;;;;;45.13;21.58;;;;;;;1.21;85.07;101601.88;4843338;29;20129;-93
2022/01/27 04:46:45;;;;;;;45.35;21.25;;;;;;;1.31;85.08;101598.47;4873508;29;20088;-93
2022/01/27 04:49:23;;;;;;;49.28;21.67;;;;;;;1.25;84.08;101574.97;4885368;29;20081;-94
2022/01/27 04:51:53;;;;;;;48.85;21.77;;;;;;;1.21;83.96;101576.66;4883164;29;20060;-94
2022/01/27 04:55:21;;;;;;;42.45;20.73;;;;;;;1.24;84.31;101576.69;4881610;29;20468;-95
2022/01/27 04:57:54;;;;;;;;;;;;;;;;;;;;;
2022/01/27 05:00:39;;;;;;;45.38;21.05;;;;;;;1.19;84.10;101559.22;4889983;29;20056;-94
2022/01/27 05:03:18;;;;;;;43.50;21.15;;;;;;;1.20;84.20;101566.19;4889839;29;20067;-94
2022/01/27 05:06:02;;;;;;;40.63;19.05;;;;;;;1.35;83.43;101584.63;4850552;29;20046;-93
2022/01/27 05:08:32;;;;;;;45.33;20.60;;;;;;;1.52;82.92;101614.34;4843774;29;20057;-94
2022/01/27 05:11:08;;;;;;;41.83;20.08;;;;;;;1.26;83.12;101574.94;4848753;29;20058;-94
2022/01/27 05:16:36;;;;;;;42.85;20.13;;;;;;;1.00;84.13;101548.59;4837541;29;20046;-96
2022/01/27 05:19:05;;;;;;;42.85;20.05;;;;;;;1.09;83.99;101557.41;4845414;29;20061;-95
2022/01/27 05:21:41;;;;;;;43.85;19.90;;;;;;;1.28;83.58;101588.00;4846955;29;20077;-93
2022/01/27 05:24:12;;;;;;;;;;;;;;;1.41;83.08;101602.94;4841346;29;20061;-95
2022/01/27 05:26:43;;;;;;;44.83;20.50;;;;;;;1.36;84.20;101612.47;4842657;29;19976;-92
2022/01/27 05:29:20;;;;;;;44.50;20.23;;;;;;;1.28;83.47;101593.22;4849269;29;20409;-93
2022/01/27 05:31:47;;;;;;;48.65;21.88;;;;;;;1.35;83.01;101595.06;4849601;29;20156;-93
2022/01/27 05:34:15;;;;;;;46.85;20.95;;;;;;;1.08;83.93;101551.31;4844557;29;20057;-94
2022/01/27 05:37:03;;;;;;;43.42;19.27;;;;;;;1.14;82.69;101545.25;4865655;29;20054;-93
2022/01/27 05:39:30;;;;;;;44.88;20.83;;;;;;;1.27;83.02;101575.81;4859967;29;20050;-94
2022/01/27 05:42:00;;;;;;;41.38;19.92;;;;;;;1.22;83.66;101588.84;4852271;29;20068;-95
2022/01/27 05:44:31;;;;;;;37.55;17.20;;;;;;;1.28;83.96;101606.28;4857381;29;20057;-95
2022/01/27 05:47:14;;;;;;;42.78;20.30;;;;;;;1.27;83.73;101614.97;4853584;29;20398;-93
2022/01/27 05:49:56;;;;;;;41.17;19.60;;;;;;;1.31;83.44;101616.75;4849260;29;20118;-94
2022/01/27 05:52:39;;;;;;;41.92;20.45;;;;;;;1.24;83.97;101604.50;4849193;29;20057;-93
2022/01/27 05:55:07;;;;;;;41.20;19.70;;;;;;;1.43;83.49;101632.53;4856928;29;20057;-95
2022/01/27 05:57:35;;;;;;;43.42;20.45;;;;;;;1.11;83.43;101571.31;4851267;29;20053;-93
2022/01/27 06:00:24;;;;;;;45.35;20.85;;;;;;;1.43;83.78;101624.69;4848208;29;20136;-93
2022/01/27 06:02:56;;;;;;;45.58;20.75;;;;;;;1.14;83.77;101567.00;4851803;29;20140;-93
2022/01/27 06:05:33;;;;;;;43.80;19.50;;;;;;;1.30;83.19;101605.44;4891830;29;20063;-94
2022/01/27 06:08:36;;;;;;;42.90;19.77;;;;;;;1.15;83.18;101573.09;4894806;29;20048;-94
2022/01/27 06:11:27;;;;;;;42.13;18.38;;;;;;;1.23;83.80;101590.59;4896211;29;20036;-95
2022/01/27 06:14:22;;;;;;;43.65;18.77;;;;;;;1.32;83.24;101595.00;4890213;29;20048;-93
2022/01/27 06:16:52;;;;;;;40.88;17.73;;;;;;;1.30;83.20;101579.34;4891071;29;20060;-93
2022/01/27 06:19:28;;;;;;;40.60;18.38;;;;;;;1.25;83.79;101575.84;4884491;29;20053;-95
2022/01/27 06:21:58;;;;;;;39.53;18.58;;;;;;;1.51;84.11;101625.66;4884208;29;20139;-93
2022/01/27 06:24:27;;;;;;;41.75;18.73;;;;;;;1.22;83.42;101564.47;4884600;29;20053;-94
2022/01/27 06:26:57;;;;;;;41.08;18.35;;;;;;;1.27;83.36;101574.09;4886701;29;20085;-94
2022/01/27 06:29:28;;;;;;;42.33;17.95;;;;;;;1.26;82.85;101554.06;4885501;29;20057;-93
2022/01/27 06:32:01;;;;;;;36.47;17.48;;;;;;;1.27;82.62;101563.66;4884292;29;20568;-93
2022/01/27 06:34:28;;;;;;;39.47;17.52;;;;;;;1.35;83.57;101582.00;4883979;29;20074;-93
2022/01/27 06:36:58;;;;;;;37.95;17.55;;;;;;;1.23;83.42;101555.78;4888153;29;20121;-94
2022/01/27 06:39:29;;;;;;;38.08;16.67;;;;;;;1.27;83.60;101560.16;4881767;29;20200;-94
2022/01/27 06:41:56;;;;;;;35.83;16.60;;;;;;;1.34;84.04;101573.28;4887566;29;20072;-92
2022/01/27 06:44:35;;;;;;;36.78;17.48;;;;;;;1.36;83.85;101558.53;4886576;29;20060;-93
2022/01/27 06:47:20;;;;;;;37.15;16.17;;;;;;;1.42;83.69;101556.84;4889939;29;20049;-93
2022/01/27 06:49:49;;;;;;;36.72;16.45;;;;;;;1.33;84.01;101536.75;4873901;29;20053;-93
2022/01/27 06:52:22;;;;;;;36.95;16.95;;;;;;;1.37;83.89;101543.75;4888121;29;20086;-95
2022/01/27 06:55:21;;;;;;;;;;;;;;;;;;;;;
2022/01/27 06:57:53;;;;;;;33.33;15.48;;;;;;;1.36;83.89;101529.81;4884233;29;20136;-95
2022/01/27 07:00:28;;;;;;;37.30;16.10;;;;;;;1.39;84.26;101540.28;4887429;29;20056;-94
2022/01/27 07:03:02;;;;;;;37.35;16.63;;;;;;;1.62;84.19;101561.34;4885303;29;20061;-92
2022/01/27 07:05:35;;;;;;;32.58;15.57;;;;;;;1.23;84.65;101507.09;4881881;29;20056;-92
2022/01/27 07:08:22;;;;;;;32.83;14.02;;;;;;;1.24;84.99;101505.38;4885520;29;20060;-93
2022/01/27 07:11:44;;;;;;;33.47;15.18;;;;;;;1.62;84.54;101552.66;4885077;29;20048;-92
2022/01/27 07:14:40;;;;;;;33.40;14.73;;;;;;;1.63;84.32;101546.56;4880750;29;20059;-94
2022/01/27 07:17:12;;;;;;;34.45;15.23;;;;;;;1.50;84.11;101505.56;4880484;29;20059;-95
2022/01/27 07:19:43;;;;;;;33.13;15.50;;;;;;;1.55;84.85;101515.19;4877915;29;20124;-91
2022/01/27 07:22:11;;;;;;;29.13;13.73;;;;;;;1.42;84.68;101495.94;4882005;29;20064;-94
2022/01/27 07:24:42;;;;;;;34.58;15.13;;;;;;;1.48;85.06;101489.00;4883677;29;20127;-92
2022/01/27 07:27:10;;;;;;;36.50;16.40;;;;;;;1.62;85.36;101524.81;4886157;29;20059;-91
2022/01/27 07:29:38;;;;;;;37.15;16.45;;;;;;;1.29;85.02;101451.47;4886964;29;20083;-93
2022/01/27 07:32:10;;;;;;;38.97;15.77;;;;;;;1.27;85.28;101445.34;4869945;29;20059;-95
2022/01/27 07:34:46;;;;;;;40.15;16.83;;;;;;;1.42;86.50;101483.78;4884662;29;20620;-94
2022/01/27 07:37:18;;;;;;;36.65;16.15;;;;;;;1.40;86.17;101482.03;4891330;29;20049;-95
2022/01/27 07:43:54;;;;;;;37.72;15.43;;;;;;;1.48;87.13;101499.47;4891001;29;20503;-93
2022/01/27 07:46:23;;;;;;;37.88;15.77;;;;;;;1.14;86.91;101448.72;4878180;29;20029;-93
2022/01/27 07:48:53;;;;;;;35.85;16.15;;;;;;;1.58;87.06;101512.59;4877046;29;20057;-93
2022/01/27 07:51:52;;;;;;;34.13;15.35;;;;;;;1.36;86.65;101477.63;4879985;29;20057;-93
2022/01/27 07:54:24;;;;;;;36.97;15.82;;;;;;;1.26;86.56;101456.69;4881769;29;20084;-93
2022/01/27 07:56:54;;;;;;;36.75;16.35;;;;;;;1.53;87.02;101503.84;4879505;29;20032;-92
2022/01/27 07:59:35;;;;;;;38.55;15.93;;;;;;;1.48;87.76;101483.78;4879688;29;20049;-93
2022/01/27 08:02:10;;;;;;;37.80;16.17;;;;;;;1.18;87.59;101440.94;4883877;29;20044;-91
2022/01/27 08:05:37;;;;;;;41.58;16.67;;;;;;;1.24;88.16;101463.63;4883533;29;20045;-92
2022/01/27 08:09:07;;;;;;;;;;;;;;;;;;;;;
2022/01/27 08:12:25;;;;;;;38.17;17.73;;;;;;;1.12;88.42;101440.00;4873089;29;20057;-91
2022/01/27 08:15:37;;;;;;;38.92;17.30;;;;;;;1.11;88.86;101430.44;4859917;29;20063;-92
2022/01/27 08:18:41;;;;;;;38.05;16.63;;;;;;;1.45;89.13;101489.88;4873712;29;20060;-93
2022/01/27 08:24:41;;;;;;;38.30;17.88;;;;;;;1.58;88.37;101489.09;4879189;29;20139;-94
2022/01/27 08:28:19;;;;;;;37.60;16.70;;;;;;;1.24;88.72;101447.97;4848548;29;20084;-92
2022/01/27 08:32:09;;;;;;;;;;;;;;;;;;;;;
2022/01/27 08:34:41;;;;;;;37.17;16.33;;;;;;;1.27;89.73;101453.19;4877813;29;20060;-91
2022/01/27 08:38:55;;;;;;;;;;;;;;;;;;;;;
2022/01/27 08:41:55;;;;;;;42.20;17.95;;;;;;;1.44;90.15;101480.28;4833374;29;20057;-93
2022/01/27 08:45:24;;;;;;;38.58;17.70;;;;;;;1.45;90.00;101484.63;4699877;30;20054;-92
2022/01/27 08:52:32;;;;;;;;;;;;;;;;;;;;;
2022/01/27 08:55:34;;;;;;;43.53;18.80;;;;;;;1.46;89.93;101481.16;4678810;30;20121;-93
2022/01/27 08:59:23;;;;;;;;;;;;;;;;;;;;;
2022/01/27 09:02:20;;;;;;;44.67;19.98;;;;;;;1.42;89.49;101454.16;4620784;30;20125;-91
2022/01/27 09:05:40;;;;;;;43.80;18.15;;;;;;;1.32;89.85;101428.88;4631880;30;20060;-93
2022/01/27 09:11:46;;;;;;;;;;;;;;;;;;;;;
2022/01/27 09:15:06;;;;;;;46.00;20.45;;;;;;;1.23;90.98;101409.69;4647938;30;20063;-93
2022/01/27 09:18:32;;;;;;;;;;;;;;;;;;;;;
2022/01/27 09:21:58;;;;;;;45.47;20.17;;;;;;;1.52;91.25;101442.06;4752029;30;20067;-93
2022/01/27 09:25:43;;;;;;;48.47;20.23;;;;;;;1.63;91.48;101465.63;4784801;29;20467;-92
2022/01/27 09:32:30;;;;;;;41.05;18.95;;;;;;;1.67;91.33;101442.16;4833669;29;20906;-92
2022/01/27 09:35:31;;;;;;;41.85;19.77;;;;;;;1.78;91.21;101455.28;4830095;29;20065;-92
2022/01/27 09:38:16;;;;;;;43.08;19.27;;;;;;;1.54;91.57;101418.59;4827105;29;20050;-94
2022/01/27 09:41:23;;;;;;;43.28;19.13;;;;;;;1.36;91.82;101388.03;4872324;29;20053;-93
2022/01/27 09:44:04;;;;;;;;;;;;;;;1.76;91.68;101449.16;4874372;29;20060;-93
2022/01/27 09:46:35;;;;;;;43.05;20.30;;;;;;;1.43;91.63;101371.53;4880303;29;19923;-92
2022/01/27 09:52:27;;;;;;;46.75;20.80;;;;;;;1.78;90.55;101437.00;4872124;29;20121;-93
2022/01/27 09:55:08;;;;;;;41.35;18.88;;;;;;;1.49;90.84;101376.78;4883820;29;20061;-93
2022/01/27 09:57:49;;;;;;;;;;;;;;;;;;;;;
2022/01/27 10:00:23;;;;;;;43.72;20.13;;;;;;;1.58;91.17;101421.22;4877567;29;20063;-94
2022/01/27 10:03:06;;;;;;;44.50;20.40;;;;;;;1.59;90.13;101435.13;4881987;29;20056;-91
2022/01/27 10:05:40;;;;;;;41.30;19.13;;;;;;;1.19;90.52;101393.13;4879263;29;20065;-92
2022/01/27 10:08:14;;;;;;;42.60;20.30;;;;;;;1.54;90.43;101442.09;4873902;29;20087;-92
2022/01/27 10:10:46;;;;;;;41.15;20.20;;;;;;;1.40;91.06;101408.94;4875572;29;20052;-93
2022/01/27 10:13:34;;;;;;;40.70;18.67;;;;;;;1.62;90.24;101435.16;4880464;29;20037;-92
2022/01/27 10:16:03;;;;;;;40.15;18.88;;;;;;;1.18;90.44;101378.34;4882481;29;20112;-93
2022/01/27 10:18:44;;;;;;;37.58;19.08;;;;;;;1.59;91.08;101430.78;4872253;29;20219;-93
2022/01/27 10:21:12;;;;;;;40.15;18.80;;;;;;;1.47;91.31;101415.06;4883907;29;20057;-94
2022/01/27 10:23:43;;;;;;;40.13;18.55;;;;;;;1.28;91.32;101389.69;4896886;29;20117;-91
2022/01/27 10:26:18;;;;;;;37.85;17.75;;;;;;;1.59;91.52;101429.91;4893967;29;20617;-92
2022/01/27 10:28:51;;;;;;;40.88;18.13;;;;;;;1.55;91.00;101431.66;4882178;29;20113;-93
2022/01/27 10:31:25;;;;;;;39.30;16.65;;;;;;;1.54;90.15;101427.28;4879597;29;20454;-93
2022/01/27 10:34:04;;;;;;;39.78;18.27;;;;;;;1.66;90.82;101443.03;4866963;29;20089;-92
2022/01/27 10:36:40;;;;;;;37.30;17.40;;;;;;;1.74;90.55;101409.13;4881935;29;20045;-93
2022/01/27 10:39:15;;;;;;;40.83;18.10;;;;;;;1.73;90.20;101400.41;4870112;29;20477;-92
2022/01/27 10:41:57;;;;;;;38.70;17.98;;;;;;;1.81;89.92;101420.47;4868713;29;20060;-94
2022/01/27 10:44:38;;;;;;;36.85;17.52;;;;;;;1.73;90.59;101382.13;4863905;29;20041;-93
2022/01/27 10:47:17;;;;;;;36.67;16.67;;;;;;;1.64;89.44;101369.03;4881084;29;20120;-94
2022/01/27 10:50:06;;;;;;;42.22;17.67;;;;;;;1.63;89.43;101349.03;5036512;23;20435;-94
2022/01/27 10:55:08;;;;;;;36.75;16.40;;;;;;;2.06;89.43;101414.47;4860606;29;20117;-92
2022/01/27 11:00:46;;;;;;;34.08;15.68;;;;;;;1.84;89.09;101383.94;5042942;23;19920;-93
2022/01/27 11:03:17;;;;;;;31.67;15.15;;;;;;;1.80;89.42;101367.38;4864064;29;20060;-93
2022/01/27 11:05:45;;;;;;;35.47;15.88;;;;;;;1.95;89.26;101393.56;4863261;29;20037;-93
2022/01/27 11:08:18;;;;;;;33.75;16.15;;;;;;;1.93;88.60;101384.84;4862821;29;20057;-93
2022/01/27 11:10:49;;;;;;;32.88;14.98;;;;;;;1.94;89.42;101359.59;4859711;29;20141;-92
2022/01/27 11:13:19;;;;;;;32.15;15.13;;;;;;;1.87;88.35;101344.78;4858112;29;20136;-93
2022/01/27 11:15:47;;;;;;;43.40;16.85;;;;;;;1.73;89.04;101308.19;4858899;29;20050;-93
2022/01/27 11:18:17;;;;;;;30.38;15.05;;;;;;;2.10;88.25;101361.38;4860837;29;20057;-92
2022/01/27 11:20:53;;;;;;;35.05;14.38;;;;;;;1.81;88.84;101301.22;4857961;29;20065;-93
2022/01/27 11:26:12;;;;;;;32.17;14.80;;;;;;;2.12;89.45;101330.91;4866974;29;20057;-92
2022/01/27 11:28:45;;;;;;;32.30;15.48;;;;;;;2.25;90.11;101366.66;4874075;29;20076;-92
2022/01/27 11:31:33;;;;;;;33.92;16.02;;;;;;;2.12;91.28;101367.50;4873326;29;20074;-96
2022/01/27 11:34:15;;;;;;;38.97;16.42;;;;;;;2.02;93.47;101357.88;4877397;29;20113;-94
2022/01/27 11:37:03;;;;;;;36.75;16.60;;;;;;;2.08;92.90;101350.94;4878900;29;20038;-93
2022/01/27 11:39:54;;;;;;;38.20;16.60;;;;;;;2.24;94.08;101338.78;4876255;29;20050;-96
2022/01/27 11:43:18;;;;;;;;;;;;;;;;;;;;;
2022/01/27 11:46:16;;;;;;;33.63;16.67;;;;;;;2.50;91.87;101345.78;4872037;29;20069;-93
2022/01/27 11:48:43;;;;;;;32.58;15.25;;;;;;;2.31;91.14;101298.72;4867611;29;20049;-96
2022/01/27 11:51:13;;;;;;;34.30;15.25;;;;;;;2.30;91.36;101337.91;4851568;29;20053;-96
2022/01/27 11:53:51;;;;;;;36.88;16.58;;;;;;;2.20;92.04;101338.78;4867575;29;20049;-95
2022/01/27 11:56:27;;;;;;;34.50;17.25;;;;;;;2.20;92.61;101331.81;4879692;29;20057;-94
2022/01/27 11:59:05;;;;;;;31.88;15.90;;;;;;;1.88;92.70;101295.16;4877612;29;20065;-96
2022/01/27 12:01:58;;;;;;;33.42;15.80;;;;;;;2.00;93.37;101317.81;4877663;29;20045;-94
2022/01/27 12:04:26;;;;;;;35.75;16.70;;;;;;;1.76;92.72;101261.16;4868416;29;20049;-94
2022/01/27 12:07:05;;;;;;;35.55;16.20;;;;;;;1.79;93.11;101250.72;4867666;29;20442;-95
2022/01/27 12:09:36;;;;;;;36.35;15.38;;;;;;;1.81;92.29;101269.88;4866879;29;20049;-93
2022/01/27 12:12:32;;;;;;;33.13;15.45;;;;;;;2.13;92.47;101319.59;4868298;29;20053;-94
2022/01/27 12:15:06;;;;;;;36.08;15.43;;;;;;;2.01;92.91;101293.44;4869575;29;20049;-94
2022/01/27 12:17:34;;;;;;;31.65;15.20;;;;;;;2.04;92.47;101298.69;4865747;29;20057;-95
2022/01/27 12:20:25;;;;;;;;;;;;;;;;;;;;;
2022/01/27 12:23:04;;;;;;;32.63;15.30;;;;;;;1.89;94.43;101311.72;4870291;29;20068;-94
2022/01/27 12:25:46;;;;;;;36.08;15.95;;;;;;;1.79;94.67;101284.66;4852375;29;20049;-95
2022/01/27 12:28:20;;;;;;;37.20;15.38;;;;;;;1.69;95.29;101254.19;4857485;29;20052;-94
2022/01/27 12:30:59;;;;;;;33.95;15.95;;;;;;;1.73;95.59;101248.97;4874008;29;20585;-94
2022/01/27 12:33:56;;;;;;;34.90;16.02;;;;;;;2.07;95.87;101309.13;4878954;29;20100;-94
2022/01/27 12:36:38;;;;;;;31.58;15.02;;;;;;;1.89;95.02;101277.75;4853600;29;20073;-93
2022/01/27 12:39:10;;;;;;;37.85;17.15;;;;;;;1.59;95.77;101241.97;4872398;29;20052;-94
2022/01/27 12:41:46;;;;;;;38.00;16.15;;;;;;;1.74;96.47;101284.66;4882045;29;20613;-96
2022/01/27 12:44:19;;;;;;;36.20;17.02;;;;;;;1.51;97.44;101241.06;4876803;29;20045;-96
2022/01/27 12:47:08;;;;;;;38.33;16.95;;;;;;;1.88;99.42;101296.91;4877990;29;20048;-94
2022/01/27 12:49:39;;;;;;;35.47;16.83;;;;;;;1.74;98.68;101268.09;4875331;29;20057;-94
2022/01/27 12:52:09;;;;;;;39.80;17.90;;;;;;;1.88;99.75;101270.78;4874666;29;20106;-92
2022/01/27 12:54:38;;;;;;;37.58;17.88;;;;;;;1.70;98.86;101220.25;4868738;29;20054;-94
2022/01/27 12:57:10;;;;;;;35.75;17.65;;;;;;;1.95;98.66;101243.78;4872748;29;20087;-94
2022/01/27 12:59:43;;;;;;;43.67;18.65;;;;;;;1.87;99.45;101241.19;5353751;23;20342;-95
2022/01/27 13:02:13;;;;;;;38.28;16.70;;;;;;;1.72;99.46;101209.81;4885998;29;20528;-93
2022/01/27 13:04:56;;;;;;;36.78;17.40;;;;;;;2.04;99.47;101267.34;4879506;29;20120;-91
2022/01/27 13:07:24;;;;;;;36.97;17.77;;;;;;;1.91;99.15;101239.44;4888740;29;20041;-92
2022/01/27 13:10:17;;;;;;;34.85;16.83;;;;;;;2.11;99.06;101262.09;4885320;29;20057;-92
2022/01/27 13:12:50;;;;;;;36.22;17.05;;;;;;;1.73;98.95;101178.47;4891360;29;20055;-93
2022/01/27 13:15:23;;;;;;;38.03;17.38;;;;;;;1.94;99.31;101231.59;4878309;29;20049;-93
2022/01/27 13:17:56;;;;;;;39.15;16.58;;;;;;;1.76;99.74;101211.53;4872969;29;20113;-91
2022/01/27 13:20:36;;;;;;;34.05;16.42;;;;;;;1.91;99.35;101234.19;4882269;29;20053;-94
2022/01/27 13:23:14;;;;;;;42.42;18.58;;;;;;;1.61;99.59;101178.44;4880844;29;20045;-93
2022/01/27 13:25:53;;;;;;;39.03;16.80;;;;;;;1.61;99.58;101175.84;4889298;29;20112;-94
2022/01/27 13:28:36;;;;;;;39.95;17.90;;;;;;;1.95;99.61;101233.34;4890237;29;20053;-94
2022/01/27 13:31:07;;;;;;;43.85;18.58;;;;;;;1.89;98.63;101212.47;4893606;29;20059;-94
2022/01/27 13:33:38;;;;;;;39.70;17.73;;;;;;;1.72;99.94;101187.19;4896831;29;20077;-94
2022/01/27 13:36:21;;;;;;;36.15;16.15;;;;;;;1.90;99.04;101208.94;4895036;29;20060;-93
2022/01/27 13:39:14;;;;;;;36.92;17.55;;;;;;;2.08;99.01;101251.66;4886777;29;20053;-94
2022/01/27 13:42:31;;;;;;;40.60;17.85;;;;;;;1.70;99.60;101193.28;4887129;29;20073;-95
2022/01/27 13:48:27;;;;;;;38.00;17.88;;;;;;;1.70;100.00;101211.56;5097868;23;20304;-94
2022/01/27 13:50:59;;;;;;;42.40;18.77;;;;;;;1.87;100.00;101238.56;4867414;29;20052;-91
2022/01/27 13:53:33;;;;;;;41.00;18.45;;;;;;;1.65;100.00;101190.66;4879528;29;20053;-94
2022/01/27 13:56:20;;;;;;;42.30;18.95;;;;;;;1.77;100.00;101195.88;4871119;29;20063;-94
2022/01/27 13:59:13;;;;;;;43.97;19.85;;;;;;;1.84;100.00;101188.06;4875277;29;20126;-94
2022/01/27 14:01:46;;;;;;;41.15;19.80;;;;;;;1.85;100.00;101193.28;4869412;29;20093;-95
2022/01/27 14:04:20;;;;;;;39.47;17.90;;;;;;;1.90;99.59;101190.66;4881729;29;20061;-94
2022/01/27 14:07:05;;;;;;;42.90;20.25;;;;;;;1.97;100.00;101198.53;4889744;29;20049;-93
2022/01/27 14:09:41;;;;;;;41.83;18.95;;;;;;;2.00;99.68;101189.81;4890069;29;20081;-92
2022/01/27 14:12:19;;;;;;;42.97;20.27;;;;;;;2.14;100.00;101211.59;4886566;29;20057;-94